Time;durP1;ratioP1;P1;durP2;ratioP2;P2;SDS_P1;SDS_P2;PMS_P1;PMS_P2;Temp;Humidity;BMP_temperature;BMP_pressure;BME280_temperature;BME280_humidity;BME280_pressure;Samples;Min_cycle;Max_cycle;Signal;HPM_P1;HPM_P2
2022/09/08 00:00:38;;;;;;;5.05;3.30;;;;;;;20.44;47.58;95575.72;5098318;28;20067;-87
2022/09/08 00:03:08;;;;;;;5.32;3.30;;;;;;;17.74;47.98;95160.66;5116295;28;20031;-87
2022/09/08 00:05:41;;;;;;;5.80;3.17;;;;;;;20.17;47.98;95547.31;5098903;28;20482;-87
2022/09/08 00:08:07;;;;;;;8.15;3.58;;;;;;;20.24;48.27;95550.28;5094836;28;20473;-87
2022/09/08 00:10:33;;;;;;;10.15;3.63;;;;;;;19.84;48.63;95501.38;5094528;28;20468;-87
2022/09/08 00:13:00;;;;;;;10.18;4.65;;;;;;;20.22;48.57;95560.59;5078141;28;20107;-87
2022/09/08 00:15:25;;;;;;;10.63;3.40;;;;;;;19.80;48.71;95495.09;5094516;28;20135;-87
2022/09/08 00:17:51;;;;;;;9.05;3.40;;;;;;;19.90;48.96;95521.66;5094853;28;20044;-87
2022/09/08 00:20:17;;;;;;;11.75;3.40;;;;;;;19.79;49.43;95511.56;5096197;28;20113;-87
2022/09/08 00:22:45;;;;;;;9.98;3.92;;;;;;;19.50;49.69;95474.63;5094597;28;20147;-87
2022/09/08 00:25:11;;;;;;;7.70;3.78;;;;;;;19.98;49.94;95563.09;5096870;28;20417;-87
2022/09/08 00:27:36;;;;;;;12.65;3.85;;;;;;;18.09;49.92;95274.06;5097643;28;20043;-87
2022/09/08 00:30:02;;;;;;;15.25;4.60;;;;;;;19.52;50.30;95502.81;5097024;28;20108;-87
2022/09/08 00:32:28;;;;;;;14.65;3.63;;;;;;;19.84;50.29;95546.34;5097142;28;20278;-86
2022/09/08 00:34:53;;;;;;;6.45;4.07;;;;;;;17.79;50.49;95232.13;5097887;28;20067;-86
2022/09/08 00:37:20;;;;;;;5.80;3.83;;;;;;;19.75;50.50;95541.03;5096432;28;20043;-87
2022/09/08 00:39:46;;;;;;;7.30;3.67;;;;;;;19.97;50.85;95574.97;5113802;28;20039;-87
2022/09/08 00:42:12;;;;;;;10.02;4.20;;;;;;;19.20;51.06;95477.25;5113440;28;20050;-87
2022/09/08 00:44:39;;;;;;;10.40;3.80;;;;;;;19.89;51.00;95581.97;5114742;28;20043;-87
2022/09/08 00:47:26;;;;;;;9.00;4.05;;;;;;;19.89;51.02;95587.34;5115122;28;20157;-87
2022/09/08 00:50:01;;;;;;;8.30;4.30;;;;;;;19.87;50.93;95589.56;5115101;28;20039;-87
2022/09/08 00:52:30;;;;;;;7.90;4.10;;;;;;;18.47;50.80;95374.28;5117113;28;20090;-86
2022/09/08 00:54:56;;;;;;;8.95;3.60;;;;;;;19.69;50.99;95569.19;5115576;28;20483;-86
2022/09/08 00:57:22;;;;;;;6.13;3.88;;;;;;;19.76;51.18;95591.00;5113722;28;20092;-87
2022/09/08 00:59:48;;;;;;;6.15;3.92;;;;;;;19.41;51.04;95520.34;5113939;28;20043;-87
2022/09/08 01:02:25;;;;;;;6.68;4.22;;;;;;;19.75;51.28;95583.28;5113782;28;20548;-87
2022/09/08 01:04:59;;;;;;;7.00;4.20;;;;;;;19.08;51.04;95473.63;5114140;28;20036;-87
2022/09/08 01:13:32;;;;;;;8.07;3.30;;;;;;;19.20;50.41;95530.22;5115206;28;20046;-86
2022/09/08 01:15:58;;;;;;;5.20;3.22;;;;;;;19.04;49.96;95489.59;5114008;28;20489;-86
2022/09/08 01:18:24;;;;;;;12.75;3.65;;;;;;;19.36;49.42;95543.94;5113553;28;20035;-86
2022/09/08 01:20:59;;;;;;;7.20;3.22;;;;;;;19.23;49.06;95516.91;5113151;28;20044;-86
2022/09/08 01:23:34;;;;;;;5.00;3.53;;;;;;;19.60;49.12;95568.44;5114110;28;20032;-86
2022/09/08 01:26:37;;;;;;;8.52;3.35;;;;;;;19.58;49.08;95570.66;5114824;28;20055;-86
2022/09/08 01:29:07;;;;;;;6.82;3.30;;;;;;;18.92;48.69;95465.25;5100824;28;20043;-86
2022/09/08 01:31:41;;;;;;;6.47;3.47;;;;;;;19.21;48.61;95507.59;5087717;28;20395;-87
2022/09/08 01:34:07;;;;;;;6.82;3.63;;;;;;;19.17;48.50;95493.22;5110223;28;20142;-87
2022/09/08 01:36:33;;;;;;;11.98;4.13;;;;;;;18.56;48.79;95413.78;5097146;28;20071;-87
2022/09/08 01:38:58;;;;;;;6.43;4.05;;;;;;;18.57;48.92;95415.38;5112895;28;20090;-87
2022/09/08 01:41:24;;;;;;;7.40;3.92;;;;;;;18.69;49.05;95447.78;5112945;28;20188;-87
2022/09/08 01:43:49;;;;;;;9.73;4.20;;;;;;;18.62;48.95;95432.13;5113618;28;20046;-87
2022/09/08 01:46:15;;;;;;;9.38;3.72;;;;;;;18.57;49.43;95443.03;5117194;28;20039;-87
2022/09/08 01:48:40;;;;;;;9.50;3.92;;;;;;;19.52;49.61;95585.41;5117227;28;20140;-87
2022/09/08 01:51:07;;;;;;;7.05;4.05;;;;;;;19.48;50.01;95585.25;5117486;28;20048;-87
2022/09/08 01:53:33;;;;;;;9.45;4.40;;;;;;;18.88;50.77;95505.44;5117321;28;20090;-88
2022/09/08 01:55:59;;;;;;;9.63;4.82;;;;;;;17.93;51.01;95366.88;5116838;28;20088;-87
2022/09/08 01:58:25;;;;;;;8.60;4.45;;;;;;;19.21;51.42;95575.63;5116622;28;20048;-87
2022/09/08 02:00:51;;;;;;;13.48;4.85;;;;;;;19.00;51.32;95547.78;5120139;28;20519;-87
2022/09/08 02:03:17;;;;;;;11.48;4.72;;;;;;;19.13;51.24;95576.41;5116776;28;20074;-87
2022/09/08 02:05:44;;;;;;;12.30;4.43;;;;;;;19.24;51.33;95571.47;5116927;28;20036;-87
2022/09/08 02:08:10;;;;;;;13.05;4.45;;;;;;;18.81;51.62;95523.16;5116055;28;20069;-87
2022/09/08 02:10:37;;;;;;;11.35;4.20;;;;;;;19.18;51.59;95565.50;5116595;28;20044;-87
2022/09/08 02:13:04;;;;;;;8.18;4.63;;;;;;;18.88;51.83;95536.88;5116297;28;20039;-87
2022/09/08 02:15:30;;;;;;;9.50;4.32;;;;;;;19.24;51.48;95566.09;5116513;28;20040;-88
2022/09/08 02:17:59;;;;;;;8.80;4.75;;;;;;;16.69;51.60;95174.31;5117107;28;20039;-87
2022/09/08 02:20:26;;;;;;;13.45;4.90;;;;;;;18.99;52.45;95548.91;5116085;28;21059;-87
2022/09/08 02:22:53;;;;;;;10.90;5.72;;;;;;;18.68;52.64;95498.03;5116562;28;20046;-87
2022/09/08 02:25:18;;;;;;;13.05;5.05;;;;;;;18.57;52.72;95471.78;5115785;28;20082;-87
2022/09/08 02:27:44;;;;;;;11.18;5.40;;;;;;;19.22;52.52;95552.22;5115146;28;20039;-87
2022/09/08 02:30:11;;;;;;;8.77;4.88;;;;;;;18.94;53.04;95535.63;5115341;28;20076;-87
2022/09/08 02:32:36;;;;;;;10.60;4.60;;;;;;;19.01;53.22;95570.06;5116003;28;20035;-87
2022/09/08 02:35:02;;;;;;;9.75;5.10;;;;;;;18.23;53.25;95448.38;5115646;28;20058;-87
2022/09/08 02:37:27;;;;;;;13.00;5.43;;;;;;;18.40;53.69;95485.97;5115677;28;20064;-87
2022/09/08 02:39:53;;;;;;;12.90;5.30;;;;;;;18.89;53.44;95546.53;5116061;28;20058;-87
2022/09/08 02:42:19;;;;;;;11.63;4.97;;;;;;;18.96;53.57;95562.97;5116061;28;20490;-87
2022/09/08 02:44:44;;;;;;;13.25;4.70;;;;;;;18.94;53.93;95553.63;5115581;28;20047;-87
2022/09/08 02:47:10;;;;;;;13.73;5.00;;;;;;;18.38;53.83;95489.00;5115980;28;20482;-87
2022/09/08 02:49:35;;;;;;;9.10;4.65;;;;;;;16.73;54.00;95225.34;5115605;28;20085;-87
2022/09/08 02:52:01;;;;;;;15.40;5.22;;;;;;;18.27;53.99;95468.91;5115985;28;20035;-87
2022/09/08 02:54:27;;;;;;;14.15;5.05;;;;;;;18.73;54.57;95545.44;5116568;28;20066;-87
2022/09/08 02:56:53;;;;;;;7.68;4.90;;;;;;;18.36;54.83;95517.25;5122085;28;20069;-87
2022/09/08 02:59:18;;;;;;;8.93;4.88;;;;;;;16.11;54.65;95167.31;5120413;28;20039;-87
2022/09/08 03:01:43;;;;;;;12.70;5.07;;;;;;;18.25;54.88;95492.59;5116109;28;20043;-87
2022/09/08 03:04:13;;;;;;;16.00;5.43;;;;;;;18.10;55.01;95472.34;5115786;28;20043;-87
2022/09/08 03:06:39;;;;;;;11.73;5.57;;;;;;;14.64;55.24;94965.28;5115696;28;20281;-87
2022/09/08 03:09:06;;;;;;;10.80;5.30;;;;;;;16.30;55.28;95217.94;5117201;28;20044;-87
2022/09/08 03:11:33;;;;;;;15.50;5.80;;;;;;;18.06;55.33;95481.34;5114749;28;20058;-87
2022/09/08 03:13:59;;;;;;;17.92;5.63;;;;;;;18.36;55.33;95518.03;5116990;27;20043;-87
2022/09/08 03:16:26;;;;;;;17.58;5.68;;;;;;;18.64;55.21;95560.75;5117219;27;20043;-87
2022/09/08 03:18:53;;;;;;;9.85;4.97;;;;;;;18.10;55.44;95493.81;5116338;28;20047;-87
2022/09/08 03:21:19;;;;;;;14.07;5.47;;;;;;;18.29;55.41;95522.28;5115899;28;20068;-87
2022/09/08 03:23:44;;;;;;;17.58;5.07;;;;;;;17.80;55.20;95433.00;5115861;28;20122;-87
2022/09/08 03:26:16;;;;;;;9.63;5.03;;;;;;;18.29;55.66;95541.88;5114860;28;20067;-87
2022/09/08 03:28:43;;;;;;;15.40;5.60;;;;;;;18.56;55.71;95572.25;5115452;28;20045;-87
2022/09/08 03:31:12;;;;;;;12.48;5.50;;;;;;;17.83;55.66;95461.09;5115307;28;20120;-87
2022/09/08 03:33:37;;;;;;;16.13;5.75;;;;;;;18.06;56.04;95510.88;5115594;28;20074;-87
2022/09/08 03:36:06;;;;;;;10.60;5.63;;;;;;;18.47;55.73;95572.22;5115465;28;20035;-87
2022/09/08 03:38:35;;;;;;;11.52;5.97;;;;;;;17.36;56.12;95420.53;5115248;28;20463;-87
2022/09/08 03:41:08;;;;;;;11.77;6.00;;;;;;;17.46;56.10;95422.94;5114780;28;20047;-87
2022/09/08 03:43:34;;;;;;;16.92;6.18;;;;;;;18.17;56.25;95530.16;5114986;28;20051;-87
2022/09/08 03:46:00;;;;;;;10.75;5.78;;;;;;;18.16;56.45;95542.00;5114486;28;20069;-87
2022/09/08 03:48:26;;;;;;;15.68;5.80;;;;;;;17.98;56.34;95512.44;5117581;28;20230;-87
2022/09/08 03:50:51;;;;;;;15.63;6.15;;;;;;;16.27;56.25;95239.16;5115957;28;20079;-87
2022/09/08 03:53:17;;;;;;;12.70;6.30;;;;;;;13.79;56.36;94877.34;5114955;28;20181;-87
2022/09/08 03:55:43;;;;;;;12.63;5.95;;;;;;;17.98;56.78;95530.44;5114349;28;20058;-87
2022/09/08 03:58:10;;;;;;;10.52;5.90;;;;;;;16.38;56.86;95284.09;5114980;28;20048;-87
2022/09/08 04:00:38;;;;;;;16.55;6.22;;;;;;;16.13;56.62;95233.91;5115692;28;20039;-87
2022/09/08 04:03:04;;;;;;;13.55;6.50;;;;;;;18.02;56.69;95528.69;5114559;28;20043;-87
2022/09/08 04:05:30;;;;;;;15.75;6.15;;;;;;;17.40;56.85;95450.19;5114328;28;20054;-87
2022/09/08 04:07:58;;;;;;;13.27;6.13;;;;;;;17.91;56.71;95535.47;5115022;28;20043;-87
2022/09/08 04:10:24;;;;;;;9.20;6.10;;;;;;;15.76;56.31;95213.69;5115302;28;20058;-87
2022/09/08 04:12:50;;;;;;;10.98;5.90;;;;;;;16.81;56.47;95367.34;5114878;28;20134;-87
2022/09/08 04:15:16;;;;;;;16.80;5.88;;;;;;;17.90;55.83;95547.28;5114133;28;20039;-87
2022/09/08 04:17:41;;;;;;;15.13;6.47;;;;;;;17.85;55.87;95537.47;5115523;28;20065;-87
2022/09/08 04:20:07;;;;;;;18.27;6.47;;;;;;;17.41;57.92;95593.88;5114558;28;20074;-87
2022/09/08 04:22:33;;;;;;;16.02;6.60;;;;;;;16.92;58.13;95491.91;5114425;28;20039;-86
2022/09/08 04:24:58;;;;;;;16.23;7.20;;;;;;;16.38;57.73;95358.25;5114487;28;20134;-87
2022/09/08 04:27:24;;;;;;;15.13;7.22;;;;;;;17.33;57.08;95498.88;5114807;28;20046;-87
2022/09/08 04:29:50;;;;;;;16.70;7.03;;;;;;;17.41;56.95;95494.66;5114227;28;20512;-87
2022/09/08 04:32:16;;;;;;;16.27;7.25;;;;;;;17.50;56.83;95500.88;5114037;28;20040;-87
2022/09/08 04:34:42;;;;;;;23.33;8.10;;;;;;;17.05;57.23;95439.31;5114238;28;20046;-87
2022/09/08 04:37:08;;;;;;;16.17;7.75;;;;;;;18.06;56.93;95583.34;5113352;28;20516;-87
2022/09/08 04:39:34;;;;;;;17.23;6.78;;;;;;;16.18;57.03;95304.13;5115926;28;20047;-87
2022/09/08 04:41:59;;;;;;;16.38;7.05;;;;;;;15.08;57.15;95102.53;5113399;28;20478;-87
2022/09/08 04:44:25;;;;;;;14.50;6.20;;;;;;;17.42;56.89;95470.22;5113723;28;20104;-87
2022/09/08 04:46:50;;;;;;;13.70;6.72;;;;;;;17.59;56.32;95483.72;5115265;28;20046;-87
2022/09/08 04:49:16;;;;;;;11.88;5.95;;;;;;;17.55;55.67;95488.09;5116346;28;20087;-87
2022/09/08 04:51:42;;;;;;;17.65;6.05;;;;;;;16.07;54.94;95251.19;5113242;28;20046;-87
2022/09/08 04:54:09;;;;;;;13.18;5.22;;;;;;;16.36;54.00;95288.97;5110758;28;20047;-87
2022/09/08 04:56:35;;;;;;;10.07;5.45;;;;;;;18.30;53.91;95586.41;5090001;28;20040;-87
2022/09/08 04:59:01;;;;;;;16.17;5.72;;;;;;;16.69;53.71;95347.59;5093484;28;20035;-87
2022/09/08 05:01:29;;;;;;;10.38;5.68;;;;;;;18.29;53.91;95586.72;5113272;28;20146;-87
2022/09/08 05:03:59;;;;;;;13.45;5.38;;;;;;;18.01;53.67;95537.84;5104123;28;20040;-87
2022/09/08 05:06:30;;;;;;;15.00;6.13;;;;;;;18.38;54.04;95582.19;5086728;28;20069;-87
2022/09/08 05:08:58;;;;;;;9.55;4.55;;;;;;;17.76;53.65;95487.59;5095927;28;20326;-87
2022/09/08 05:11:26;;;;;;;7.85;5.05;;;;;;;17.73;53.93;95479.06;5096642;28;20063;-87
2022/09/08 05:13:52;;;;;;;16.38;5.78;;;;;;;18.08;53.97;95549.69;5113035;28;20411;-87
2022/09/08 05:16:20;;;;;;;11.38;5.97;;;;;;;18.56;54.01;95601.78;5095254;28;20137;-87
2022/09/08 05:18:48;;;;;;;10.43;5.43;;;;;;;18.63;53.70;95604.81;5093264;28;20052;-87
2022/09/08 05:21:13;;;;;;;11.95;5.47;;;;;;;17.98;53.85;95504.38;5091572;28;20115;-87
2022/09/08 05:23:39;;;;;;;11.48;5.38;;;;;;;18.61;53.91;95609.75;5091958;28;20471;-87
2022/09/08 05:26:07;;;;;;;12.18;5.55;;;;;;;16.69;53.94;95313.56;5111854;28;20118;-87
2022/09/08 05:28:37;;;;;;;8.55;5.38;;;;;;;18.52;53.67;95577.47;5089764;28;20089;-87
2022/09/08 05:31:05;;;;;;;16.92;5.22;;;;;;;16.11;53.42;95203.97;5082170;28;20051;-88
2022/09/08 05:33:31;;;;;;;12.10;5.35;;;;;;;16.45;53.40;95248.84;5078721;28;20045;-87
2022/09/08 05:35:57;;;;;;;8.48;5.13;;;;;;;18.58;53.69;95567.38;5083154;28;20572;-87
2022/09/08 05:38:22;;;;;;;7.45;5.40;;;;;;;16.76;53.27;95284.47;5088286;28;20056;-89
2022/09/08 05:40:49;;;;;;;13.68;5.95;;;;;;;17.55;53.38;95409.53;5109931;27;20174;-88
2022/09/08 05:43:20;;;;;;;8.95;5.38;;;;;;;16.66;52.86;95262.50;5088232;28;20048;-87
2022/09/08 05:45:48;;;;;;;11.00;4.85;;;;;;;16.46;52.62;95227.13;5106197;28;20042;-87
2022/09/08 05:48:17;;;;;;;11.73;5.53;;;;;;;18.83;52.54;95580.06;5081315;28;20040;-87
2022/09/08 05:50:49;;;;;;;11.93;5.00;;;;;;;17.24;52.80;95342.63;5089924;28;20040;-87
2022/09/08 05:53:15;;;;;;;10.48;5.47;;;;;;;14.77;52.54;94968.16;5091232;28;20028;-87
2022/09/08 05:55:41;;;;;;;10.65;5.05;;;;;;;15.29;52.83;95042.16;5101068;28;20057;-88
2022/09/08 05:58:22;;;;;;;13.80;5.30;;;;;;;15.16;52.38;95002.97;5071296;28;20134;-88
2022/09/08 06:04:05;;;;;;;9.25;4.57;;;;;;;15.20;52.48;94998.56;5104436;28;20050;-87
2022/09/08 06:06:40;;;;;;;7.88;4.85;;;;;;;17.25;51.98;95306.66;5092353;28;20102;-87
2022/09/08 06:09:09;;;;;;;6.43;4.35;;;;;;;15.40;51.65;95014.09;5082235;28;20039;-88
2022/09/08 06:11:52;;;;;;;7.63;4.40;;;;;;;15.43;51.61;95010.78;5083304;28;20113;-88
2022/09/08 06:15:06;;;;;;;9.13;4.90;;;;;;;15.39;51.33;95009.06;5060071;28;20079;-88
2022/09/08 06:17:32;;;;;;;11.80;4.65;;;;;;;18.09;51.48;95416.31;5043357;28;20063;-88
2022/09/08 06:19:58;;;;;;;11.23;4.85;;;;;;;18.20;51.13;95422.94;5062396;28;20044;-86
2022/09/08 06:22:33;;;;;;;11.98;5.22;;;;;;;19.45;51.40;95607.38;5063662;28;20039;-88
2022/09/08 06:25:02;;;;;;;7.50;5.07;;;;;;;18.95;50.99;95544.47;5077523;28;20039;-88
2022/09/08 06:27:28;;;;;;;9.90;4.78;;;;;;;19.31;51.06;95622.09;5084531;28;20494;-88
2022/09/08 06:30:02;;;;;;;10.88;5.82;;;;;;;19.33;50.96;95625.25;5084458;28;20040;-88
2022/09/08 06:32:43;;;;;;;9.65;5.00;;;;;;;18.30;51.25;95464.81;5086910;28;20475;-88
2022/09/08 06:35:26;;;;;;;14.95;5.43;;;;;;;19.37;50.89;95618.94;5082154;28;20055;-88
2022/09/08 06:38:05;;;;;;;12.82;5.53;;;;;;;19.48;51.06;95624.78;5080936;28;20528;-87
2022/09/08 06:40:33;;;;;;;10.95;5.70;;;;;;;19.52;50.83;95617.69;5100114;27;20082;-87
2022/09/08 06:43:25;;;;;;;13.65;5.80;;;;;;;18.94;50.58;95543.69;5083178;28;20070;-87
2022/09/08 06:45:56;;;;;;;18.02;5.88;;;;;;;19.00;50.59;95558.53;5099017;28;20066;-87
2022/09/08 06:48:32;;;;;;;12.93;5.18;;;;;;;18.51;50.93;95504.16;5086721;28;20055;-87
2022/09/08 06:51:31;;;;;;;7.88;5.45;;;;;;;19.42;50.50;95632.22;5087772;28;20048;-86
2022/09/08 06:54:02;;;;;;;9.95;5.15;;;;;;;19.24;50.59;95601.06;5087631;28;20180;-88
2022/09/08 06:56:55;;;;;;;13.27;5.47;;;;;;;19.42;50.88;95634.13;5091168;28;20039;-87
2022/09/08 07:00:13;;;;;;;;;;;;;;;;;;;;;
2022/09/08 07:03:09;;;;;;;19.45;5.57;;;;;;;19.61;50.07;95645.34;5114926;27;20709;-87
2022/09/08 07:09:24;;;;;;;7.40;5.35;;;;;;;19.60;50.24;95644.56;5097472;28;20116;-87
2022/09/08 07:13:03;;;;;;;10.18;5.40;;;;;;;19.63;50.03;95646.63;5099852;28;20059;-87
2022/09/08 07:16:04;;;;;;;9.65;5.03;;;;;;;19.80;49.47;95637.72;5117507;28;20311;-87
2022/09/08 07:18:50;;;;;;;8.43;5.20;;;;;;;15.08;50.29;94952.97;5093706;27;20047;-88
2022/09/08 07:21:48;;;;;;;14.77;5.03;;;;;;;18.37;49.89;95433.69;5097004;28;20042;-87
2022/09/08 07:24:23;;;;;;;16.00;5.32;;;;;;;18.43;49.57;95423.59;5105168;28;20137;-87
2022/09/08 07:26:49;;;;;;;9.23;4.90;;;;;;;19.94;48.97;95640.22;5081284;28;20888;-86
2022/09/08 07:29:44;;;;;;;8.65;5.05;;;;;;;19.95;48.16;95644.50;5077002;28;20039;-86
2022/09/08 07:32:45;;;;;;;11.85;5.22;;;;;;;16.15;48.68;95050.56;5083513;28;20514;-86
2022/09/08 07:35:48;;;;;;;;;;;;;;;;;;;;;
2022/09/08 07:42:36;;;;;;;;;;;;;;;;;;;;;
2022/09/08 07:45:49;;;;;;;16.88;4.85;;;;;;;20.70;46.72;95646.41;5104654;28;20106;-87
2022/09/08 07:48:51;;;;;;;15.27;6.25;;;;;;;17.48;46.23;95090.16;5057953;28;20054;-88
2022/09/08 07:51:19;;;;;;;;;;;;;;;21.16;45.62;95639.28;5033062;28;20071;-87
2022/09/08 07:54:06;;;;;;;13.35;4.85;;;;;;;19.23;45.38;95326.00;5065284;28;19982;-87
2022/09/08 07:57:01;;;;;;;12.82;4.80;;;;;;;21.52;44.72;95636.78;5064676;28;20436;-87
2022/09/08 07:59:49;;;;;;;9.30;4.88;;;;;;;21.59;44.22;95621.97;5059423;28;20039;-87
2022/09/08 08:06:29;;;;;;;8.00;4.55;;;;;;;21.74;43.59;95640.25;5046058;28;20281;-88
2022/09/08 08:09:34;;;;;;;11.25;4.55;;;;;;;19.29;43.59;95240.59;5058391;28;20192;-86
2022/09/08 08:12:31;;;;;;;10.00;4.07;;;;;;;21.95;43.28;95622.06;5046153;28;20044;-87
2022/09/08 08:15:26;;;;;;;9.90;4.38;;;;;;;18.26;43.02;95037.81;5070572;28;20059;-86
2022/09/08 08:18:05;;;;;;;13.77;4.78;;;;;;;19.93;43.42;95300.25;5062162;28;20116;-86
2022/09/08 08:21:13;;;;;;;12.40;4.40;;;;;;;21.95;43.30;95635.56;5062985;28;20136;-86
2022/09/08 08:24:05;;;;;;;17.30;4.70;;;;;;;22.18;43.00;95639.47;5057731;28;20108;-86
2022/09/08 08:27:14;;;;;;;13.00;4.97;;;;;;;21.94;42.61;95578.06;5031204;28;20046;-86
2022/09/08 08:30:01;;;;;;;8.32;4.28;;;;;;;22.13;42.66;95626.16;5036279;28;20584;-87
2022/09/08 08:32:32;;;;;;;10.98;4.20;;;;;;;22.45;42.18;95629.91;5059750;28;20043;-86
2022/09/08 08:35:18;;;;;;;13.38;4.75;;;;;;;22.60;41.88;95625.72;5057644;28;20099;-86
2022/09/08 08:37:47;;;;;;;9.63;4.78;;;;;;;22.57;42.32;95592.06;5059472;28;20040;-87
2022/09/08 08:40:21;;;;;;;11.80;4.35;;;;;;;22.77;41.38;95622.81;5064116;28;20417;-86
2022/09/08 08:43:15;;;;;;;10.88;5.15;;;;;;;22.90;41.57;95608.16;5054063;28;20055;-86
2022/09/08 08:46:00;;;;;;;9.02;4.78;;;;;;;23.04;42.34;95602.38;5061793;28;20032;-87
2022/09/08 08:48:40;;;;;;;8.52;4.47;;;;;;;23.15;41.12;95602.69;5061100;28;20052;-86
2022/09/08 08:51:34;;;;;;;11.25;4.25;;;;;;;23.36;40.60;95597.88;5054773;28;20076;-87
2022/09/08 08:54:21;;;;;;;11.23;5.10;;;;;;;23.14;40.48;95542.38;5058916;28;20595;-86
2022/09/08 08:57:11;;;;;;;7.95;4.93;;;;;;;22.54;41.05;95446.00;5078358;28;20266;-87
2022/09/08 09:00:06;;;;;;;6.55;4.07;;;;;;;23.68;40.88;95580.59;5057628;28;20071;-86
2022/09/08 09:02:57;;;;;;;9.63;4.82;;;;;;;23.84;40.40;95581.41;5053038;28;20090;-87
2022/09/08 09:05:54;;;;;;;12.52;4.32;;;;;;;23.87;40.72;95577.25;5054629;28;20123;-88
2022/09/08 09:08:43;;;;;;;10.95;5.05;;;;;;;23.93;40.34;95567.72;5023358;28;20040;-87
2022/09/08 09:11:19;;;;;;;12.40;5.05;;;;;;;23.79;41.13;95564.66;5055173;28;20040;-86
2022/09/08 09:13:58;;;;;;;9.82;4.47;;;;;;;23.68;40.55;95561.66;5056313;28;20611;-87
2022/09/08 09:16:50;;;;;;;12.15;3.95;;;;;;;23.37;40.75;95512.84;5064411;28;20048;-88
2022/09/08 09:19:53;;;;;;;11.25;4.72;;;;;;;23.71;40.83;95546.66;5075763;28;20039;-87
2022/09/08 09:22:55;;;;;;;8.63;5.22;;;;;;;23.53;40.73;95521.03;5061111;28;20170;-86
2022/09/08 09:25:36;;;;;;;8.00;5.00;;;;;;;23.02;41.17;95459.38;5059391;28;20040;-86
2022/09/08 09:28:23;;;;;;;7.68;4.53;;;;;;;23.54;40.96;95538.84;5063026;28;20048;-86
2022/09/08 09:31:26;;;;;;;12.38;5.22;;;;;;;23.51;41.44;95526.00;5056042;28;20032;-86
2022/09/08 09:34:06;;;;;;;8.40;4.60;;;;;;;23.42;42.42;95526.16;5075595;28;20032;-87
2022/09/08 09:36:50;;;;;;;8.20;5.22;;;;;;;23.50;42.55;95524.44;5062747;28;20040;-87
2022/09/08 09:39:35;;;;;;;12.18;4.82;;;;;;;23.42;43.03;95529.59;5076696;28;20120;-86
2022/09/08 09:42:19;;;;;;;12.05;5.10;;;;;;;23.53;42.48;95529.13;5064268;28;20062;-87
2022/09/08 09:45:10;;;;;;;12.57;5.07;;;;;;;23.55;42.40;95516.84;5060816;28;20057;-87
2022/09/08 09:47:42;;;;;;;;;;;;;;;23.47;42.56;95526.66;5060107;28;20510;-88
2022/09/08 09:50:34;;;;;;;11.27;5.63;;;;;;;23.48;42.62;95524.78;5055623;28;20385;-87
2022/09/08 09:53:33;;;;;;;11.38;5.75;;;;;;;23.56;42.95;95502.19;5077422;28;20036;-87
2022/09/08 09:56:23;;;;;;;7.75;5.20;;;;;;;23.86;43.47;95505.25;5064812;28;20631;-87
2022/09/08 09:59:03;;;;;;;7.72;5.28;;;;;;;24.20;41.42;95404.28;5056994;28;20036;-87
2022/09/08 10:01:59;;;;;;;11.07;5.00;;;;;;;25.86;38.77;95495.47;5057632;28;20040;-86
2022/09/08 10:04:54;;;;;;;14.38;4.72;;;;;;;26.48;36.68;95436.22;5072058;28;20126;-87
2022/09/08 10:07:32;;;;;;;10.40;4.88;;;;;;;27.97;35.21;95484.94;5059063;28;20054;-87
2022/09/08 10:10:19;;;;;;;9.82;4.53;;;;;;;28.92;33.00;95475.03;5054814;28;20862;-86
2022/09/08 10:13:02;;;;;;;7.85;4.55;;;;;;;30.08;30.94;95477.28;5057963;28;20094;-87
2022/09/08 10:15:49;;;;;;;12.85;4.28;;;;;;;31.03;29.40;95470.84;5074063;28;20059;-86
2022/09/08 10:18:21;;;;;;;9.15;4.18;;;;;;;31.27;28.70;95469.19;5061232;28;20701;-87
2022/09/08 10:21:02;;;;;;;696.45;77.05;;;;;;;32.04;28.62;95466.34;5061829;28;20044;-88
2022/09/08 10:23:31;;;;;;;29.17;5.47;;;;;;;32.05;27.71;95462.41;5062522;28;20051;-89
2022/09/08 10:26:32;;;;;;;13.75;4.20;;;;;;;32.55;27.14;95457.28;5054928;28;20051;-89
2022/09/08 10:29:17;;;;;;;9.93;4.38;;;;;;;32.76;26.62;95448.03;5042484;28;20043;-88
2022/09/08 10:32:03;;;;;;;8.63;4.15;;;;;;;33.26;26.03;95448.25;5083689;28;20040;-89
2022/09/08 10:34:45;;;;;;;7.18;4.43;;;;;;;33.42;26.80;95442.88;5060264;28;20086;-88
2022/09/08 10:37:49;;;;;;;10.40;5.07;;;;;;;32.33;26.79;95351.63;5061878;28;20234;-89
2022/09/08 10:40:30;;;;;;;7.43;4.68;;;;;;;32.95;25.82;95439.19;5025667;28;20036;-89
2022/09/08 10:43:17;;;;;;;12.25;5.22;;;;;;;33.19;25.99;95426.28;5063158;28;20103;-89
2022/09/08 10:45:54;;;;;;;11.18;5.35;;;;;;;33.21;26.03;95429.44;5062889;28;20055;-89
2022/09/08 10:48:42;;;;;;;12.95;6.45;;;;;;;32.84;26.33;95411.06;5043940;28;20904;-89
2022/09/08 10:51:38;;;;;;;10.20;5.63;;;;;;;32.35;27.42;95435.09;5045042;28;20056;-89
2022/09/08 10:54:34;;;;;;;13.05;5.22;;;;;;;33.02;26.75;95419.09;5050621;28;20048;-89
2022/09/08 10:57:33;;;;;;;16.75;4.63;;;;;;;33.07;27.26;95421.38;5044747;28;20033;-89
2022/09/08 11:00:19;;;;;;;8.07;4.70;;;;;;;33.07;26.08;95419.41;5047615;28;20802;-89
2022/09/08 11:03:51;;;;;;;9.77;4.50;;;;;;;32.99;26.25;95378.69;5063592;28;20039;-90
2022/09/08 11:06:43;;;;;;;8.32;4.82;;;;;;;33.21;26.12;95415.72;5063675;28;20044;-88
2022/09/08 11:09:36;;;;;;;8.40;5.25;;;;;;;33.54;26.34;95414.84;5061557;28;20036;-88
2022/09/08 11:12:33;;;;;;;10.80;4.93;;;;;;;33.54;25.37;95406.59;5080313;27;20062;-88
2022/09/08 11:14:58;;;;;;;11.70;4.95;;;;;;;33.91;25.83;95396.59;5078963;27;20218;-88
2022/09/08 11:17:26;;;;;;;11.20;4.57;;;;;;;34.10;26.04;95404.16;5081807;28;20510;-88
2022/09/08 11:20:11;;;;;;;13.20;4.20;;;;;;;33.58;25.75;95315.78;5089022;28;20027;-88
2022/09/08 11:22:51;;;;;;;5.82;4.05;;;;;;;34.06;25.70;95397.91;5074109;28;20050;-88
2022/09/08 11:25:35;;;;;;;7.65;3.75;;;;;;;33.86;25.27;95307.09;5099304;27;20065;-89
2022/09/08 11:28:16;;;;;;;10.48;3.65;;;;;;;34.39;24.78;95393.41;5080229;28;20509;-88
2022/09/08 11:31:04;;;;;;;;;;;;;;;34.27;24.63;95394.78;5083384;28;20171;-88
2022/09/08 11:33:41;;;;;;;6.43;3.63;;;;;;;34.66;24.85;95391.28;5096092;28;20025;-88
2022/09/08 11:36:25;;;;;;;5.18;3.92;;;;;;;34.74;24.50;95398.25;5078930;28;20611;-88
2022/09/08 11:39:23;;;;;;;10.30;3.80;;;;;;;34.62;24.81;95401.63;5085600;27;20043;-88
2022/09/08 11:41:54;;;;;;;11.82;3.40;;;;;;;34.44;24.89;95393.69;5087769;28;20040;-90
2022/09/08 11:44:45;;;;;;;7.40;3.70;;;;;;;34.44;25.48;95399.19;5088257;28;20043;-89
2022/09/08 11:47:48;;;;;;;9.02;4.25;;;;;;;34.59;24.65;95405.22;5099220;27;20039;-89
2022/09/08 11:50:34;;;;;;;14.43;3.95;;;;;;;34.73;24.95;95401.41;5090738;28;20035;-89
2022/09/08 11:53:20;;;;;;;12.70;5.30;;;;;;;34.67;24.52;95359.03;5091100;27;20497;-89
2022/09/08 11:56:11;;;;;;;4.80;3.40;;;;;;;34.69;23.65;95371.19;5084440;28;20060;-89
2022/09/08 11:58:45;;;;;;;5.07;3.90;;;;;;;34.96;23.70;95392.28;5087333;28;20040;-88
2022/09/08 12:01:48;;;;;;;7.88;3.70;;;;;;;35.42;23.28;95394.06;5090298;27;20135;-88
2022/09/08 12:04:28;;;;;;;8.32;4.22;;;;;;;35.20;23.48;95386.25;5080012;28;20047;-89
2022/09/08 12:07:11;;;;;;;9.00;4.10;;;;;;;34.86;24.27;95388.56;5083995;28;20048;-89
2022/09/08 12:09:55;;;;;;;7.18;3.90;;;;;;;35.38;23.34;95385.09;5096081;28;20163;-89
2022/09/08 12:12:38;;;;;;;6.75;4.00;;;;;;;32.91;24.63;95192.00;5079710;28;20075;-89
2022/09/08 12:15:27;;;;;;;7.57;3.47;;;;;;;34.45;24.36;95325.63;5045733;28;20131;-89
2022/09/08 12:18:24;;;;;;;8.32;4.53;;;;;;;35.11;24.14;95388.03;5094286;28;20108;-89
2022/09/08 12:21:12;;;;;;;14.00;4.15;;;;;;;35.29;23.64;95384.91;5075082;28;20048;-90
2022/09/08 12:24:08;;;;;;;7.00;3.80;;;;;;;35.50;24.83;95382.44;5069069;28;20135;-90
2022/09/08 12:26:46;;;;;;;7.03;4.25;;;;;;;34.65;24.36;95388.97;5063328;28;20100;-89
2022/09/08 12:29:47;;;;;;;6.88;4.05;;;;;;;34.79;24.63;95366.66;5069492;28;20418;-89
2022/09/08 12:32:48;;;;;;;7.93;3.78;;;;;;;35.03;24.33;95332.28;5067180;28;20486;-88
2022/09/08 12:35:28;;;;;;;9.95;3.97;;;;;;;35.26;24.51;95383.00;5084906;28;20095;-89
2022/09/08 12:38:07;;;;;;;12.53;4.10;;;;;;;35.04;25.02;95336.59;5071743;28;20088;-88
2022/09/08 12:40:46;;;;;;;7.88;4.00;;;;;;;35.66;24.15;95375.38;5073293;28;20318;-89